AirNav   Pilot Hours Calculator
 
 715 users online  

0AK9 Falcon Lake Strip Airport
Point MacKenzie, Alaska, USA

GOING TO POINT MACKENZIE?


FAA INFORMATION EFFECTIVE 22 APRIL 2021

Location

FAA Identifier: 0AK9
Lat/Long: 61-19-57.1800N 150-03-32.5900W
61-19.953000N 150-03.543167W
61.3325500,-150.0590528
(estimated)
Elevation: 110 ft. / 34 m
Time zone: UTC -8 (UTC -9 during Standard Time)
Zip code: 99687

Airport Operations

Airport use: Private use. Permission required prior to landing
Activation date: 04/2004
Control tower: no
ARTCC: ANCHORAGE CENTER
FSS: KENAI FLIGHT SERVICE STATION [907-283-7211]
Attendance: UNATNDD
Segmented circle: no

Airport Communications

CTAF: 122.9
WX ASOS at LHD (9 nm S): PHONE 907-245-5432
WX ASOS at MRI (9 nm SE): 124.25 (907-271-5277)
WX ASOS at ANC (10 nm S): PHONE 907-271-5278
WX ASOS at FRN (12 nm E): 134.25
WX AWOS-3P at BCV (17 nm E): 135.55 (907-688-0826)

Nearby radio navigation aids

VOR radial/distance  VOR name  Freq  Var
TEDr326/10.3ANCHORAGE VOR/DME113.1518E
BGQr172/14.5BIG LAKE VORTAC112.5019E

Airport Services

Runway Information

Runway 17/35

Dimensions: 2000 x 30 ft. / 610 x 9 m
Surface: gravel
RUNWAY 17  RUNWAY 35
Traffic pattern: leftleft

Airport Ownership and Management from official FAA records

Ownership: Privately-owned
Owner: RICHARD W. GATTIS
1650 W SHORELINE DR
WASILLA, AK 99654
Phone 907-373-0300
CELL # 907-841-0507
Manager: RICHARD W. GATTIS
1650 W SHORELINE DR
WASILLA, AK 99654
Phone 907-373-0300

Airport Operational Statistics

Aircraft based on the field: 2
Single engine airplanes: 2
    

Instrument Procedures

There are no published instrument procedures at 0AK9.

Some nearby airports with instrument procedures:

PAED - Elmendorf Air Force Base (9 nm SE)
PAMR - Merrill Field Airport (9 nm SE)
PANC - Ted Stevens Anchorage International Airport (10 nm S)
PAFR - Bryant Army Airfield Heliport (12 nm E)
PAGQ - Big Lake Airport (14 nm NE)
 
Loc | Ops | Rwys | IFR | FBO | Links
Com | Nav | Svcs | Stats | Notes

Crowley
 
Area around 0AK9 (Falcon Lake Strip Airport)
 
Road maps at: MapQuest Bing Google
 
Aerial photo
WARNING: Photo may not be current or correct
Aerial photo of 0AK9 (Falcon Lake Strip Airport)
Do you have a better or more recent aerial photo of Falcon Lake Strip Airport that you would like to share? If so, please send us your photo.

 
Sectional chart

 
Airport distance calculator
Flying to Falcon Lake Strip Airport? Find the distance to fly.

From to 0AK9

Sunrise and sunset
Times for 08-May-2021
 Local
(UTC-8)
 Zulu
(UTC)
Morning civil twilight04:2812:28
Sunrise05:3113:31
Sunset22:2306:23
Evening civil twilight23:2607:26

Current date and time
Zulu (UTC)  09-May-2021 03:48:17
Local (UTC-8)  08-May-2021 19:48:17
 
METAR
PAED 
9nm SE 
090256Z 26008KT 10SM SCT080 BKN130 12/01 A2995 RMK AO2A SLP138 T01200010 50004 $
PAMR 
9nm SE 
090253Z 30004KT 10SM OVC075 13/M02 A2995 RMK AO2 SLP144 T01281017 53004 $
PALH 
9nm S 
090253Z 18008KT 10SM OVC070 11/02 A2997 RMK AO2 SLP148 T01060022 53005
PANC 
10nm S 
090253Z 16012G25KT 10SM -RA BKN070 OVC150 10/02 A2996 RMK AO2 RAB43 SLP144 P0000 60000 T01000017 53003
PAFR 
12nm E 
090258Z AUTO 04003KT 10SM OVC075 12/M01 A2993 RMK AO2 SLP143 T01231013 53005 PNO $
PABV 
16nm E 
090256Z AUTO 26003KT 10SM OVC080 12/02 A2997 RMK AO2 SLP154 T01170022 53005
TAF
PAED 
9nm SE 
090200Z 0902/1008 20012KT 9999 BKN050 BKN100 620505 520304 QNH2992INS BECMG 0907/0908 VRB06KT 9999 VCSH SCT050 BKN100 QNH2995INS BECMG 0920/0921 20012KT 9999 NSW SCT100 QNH2998INS TX13/0902Z TN04/0914Z
PANC 
10nm S 
081736Z 0818/0924 33004KT P6SM BKN060 OVC100 FM082300 15015G25KT P6SM BKN070 FM090900 16006KT P6SM BKN100
NOTAMs
Click for the latest NOTAMs
NOTAMs are issued by the DoD/FAA and will open in a separate window not controlled by AirNav.

 

 
 

Would you like to see your business listed on this page?

 If your business provides an interesting product or service to pilots, flight crews, aircraft, or users of the Falcon Lake Strip Airport, you should consider listing it here.  To start the listing process, click on the button below
 
Add a business
 

Other Pages about Falcon Lake Strip Airport

Update a link
 
Copyright © AirNav, LLC. All rights reserved. Privacy Policy  Contact